sensor_id;sensor_type;location;lat;lon;timestamp;pressure;altitude;pressure_sealevel;temperature;humidity
70011;BME280;59543;37.950;-122.338;2023-01-15T00:01:29;100276.84;;;12.27;76.60
70011;BME280;59543;37.950;-122.338;2023-01-15T00:03:57;100267.44;;;12.15;77.18
70011;BME280;59543;37.950;-122.338;2023-01-15T00:06:25;100273.34;;;12.10;77.37
70011;BME280;59543;37.950;-122.338;2023-01-15T00:08:52;100284.13;;;12.02;77.02
70011;BME280;59543;37.950;-122.338;2023-01-15T00:11:19;100279.78;;;12.01;78.32
70011;BME280;59543;37.950;-122.338;2023-01-15T00:13:46;100270.84;;;11.92;77.11
70011;BME280;59543;37.950;-122.338;2023-01-15T00:16:15;100270.16;;;11.90;77.61
70011;BME280;59543;37.950;-122.338;2023-01-15T00:18:42;100274.53;;;11.91;78.32
70011;BME280;59543;37.950;-122.338;2023-01-15T00:21:11;100278.03;;;11.67;80.08
70011;BME280;59543;37.950;-122.338;2023-01-15T00:23:38;100274.16;;;11.53;80.24
70011;BME280;59543;37.950;-122.338;2023-01-15T00:26:27;100271.09;;;11.40;81.54
70011;BME280;59543;37.950;-122.338;2023-01-15T00:29:12;100276.81;;;11.37;83.07
70011;BME280;59543;37.950;-122.338;2023-01-15T00:31:39;100286.75;;;11.28;84.82
70011;BME280;59543;37.950;-122.338;2023-01-15T00:34:06;100288.09;;;11.32;86.87
70011;BME280;59543;37.950;-122.338;2023-01-15T00:36:32;100283.03;;;11.29;87.11
70011;BME280;59543;37.950;-122.338;2023-01-15T00:38:59;100257.63;;;11.24;86.68
70011;BME280;59543;37.950;-122.338;2023-01-15T00:41:26;100257.75;;;11.06;88.88
70011;BME280;59543;37.950;-122.338;2023-01-15T00:43:52;100250.50;;;11.06;89.39
70011;BME280;59543;37.950;-122.338;2023-01-15T00:46:18;100249.16;;;11.02;89.69
70011;BME280;59543;37.950;-122.338;2023-01-15T00:48:45;100241.75;;;10.96;90.32
70011;BME280;59543;37.950;-122.338;2023-01-15T00:51:11;100252.53;;;11.04;90.87
70011;BME280;59543;37.950;-122.338;2023-01-15T00:53:37;100258.59;;;11.14;90.46
70011;BME280;59543;37.950;-122.338;2023-01-15T00:56:04;100252.38;;;11.14;90.20
70011;BME280;59543;37.950;-122.338;2023-01-15T00:58:30;100243.16;;;11.16;89.73
70011;BME280;59543;37.950;-122.338;2023-01-15T01:00:57;100244.13;;;11.15;89.54
70011;BME280;59543;37.950;-122.338;2023-01-15T01:03:26;100242.31;;;11.24;86.42
70011;BME280;59543;37.950;-122.338;2023-01-15T01:05:52;100249.38;;;11.33;83.36
70011;BME280;59543;37.950;-122.338;2023-01-15T01:08:19;100233.75;;;11.29;80.18
70011;BME280;59543;37.950;-122.338;2023-01-15T01:10:45;100240.13;;;11.19;80.23
70011;BME280;59543;37.950;-122.338;2023-01-15T01:13:11;100247.34;;;11.27;80.21
70011;BME280;59543;37.950;-122.338;2023-01-15T01:15:38;100262.50;;;11.20;80.63
70011;BME280;59543;37.950;-122.338;2023-01-15T01:18:05;100254.91;;;11.15;81.27
70011;BME280;59543;37.950;-122.338;2023-01-15T01:20:32;100246.28;;;11.04;82.91
70011;BME280;59543;37.950;-122.338;2023-01-15T01:22:58;100248.16;;;11.11;83.14
70011;BME280;59543;37.950;-122.338;2023-01-15T01:25:25;100280.97;;;11.15;84.20
70011;BME280;59543;37.950;-122.338;2023-01-15T01:27:51;100302.56;;;11.23;85.17
70011;BME280;59543;37.950;-122.338;2023-01-15T01:30:17;100331.94;;;11.08;83.94
70011;BME280;59543;37.950;-122.338;2023-01-15T01:32:44;100329.06;;;11.02;82.68
70011;BME280;59543;37.950;-122.338;2023-01-15T01:35:10;100330.88;;;10.93;82.19
70011;BME280;59543;37.950;-122.338;2023-01-15T01:37:37;100328.13;;;10.50;81.49
70011;BME280;59543;37.950;-122.338;2023-01-15T01:40:04;100331.22;;;10.38;83.14
70011;BME280;59543;37.950;-122.338;2023-01-15T01:42:30;100331.50;;;10.26;84.49
70011;BME280;59543;37.950;-122.338;2023-01-15T01:45:44;100329.16;;;10.14;85.94
70011;BME280;59543;37.950;-122.338;2023-01-15T01:47:45;100330.91;;;9.97;86.30
70011;BME280;59543;37.950;-122.338;2023-01-15T01:50:13;100320.28;;;9.95;87.30
70011;BME280;59543;37.950;-122.338;2023-01-15T01:52:52;100347.47;;;9.92;84.13
70011;BME280;59543;37.950;-122.338;2023-01-15T01:55:22;100341.72;;;9.87;85.42
70011;BME280;59543;37.950;-122.338;2023-01-15T01:57:52;100342.19;;;9.82;86.86
70011;BME280;59543;37.950;-122.338;2023-01-15T02:00:21;100345.56;;;9.84;85.96
70011;BME280;59543;37.950;-122.338;2023-01-15T02:02:49;100349.78;;;9.87;85.94
70011;BME280;59543;37.950;-122.338;2023-01-15T02:05:29;100338.75;;;9.90;86.12
70011;BME280;59543;37.950;-122.338;2023-01-15T02:07:56;100328.44;;;9.85;86.63
70011;BME280;59543;37.950;-122.338;2023-01-15T02:10:22;100320.31;;;9.77;86.77
70011;BME280;59543;37.950;-122.338;2023-01-15T02:13:15;100317.69;;;9.85;87.85
70011;BME280;59543;37.950;-122.338;2023-01-15T02:15:50;100326.97;;;9.91;87.06
70011;BME280;59543;37.950;-122.338;2023-01-15T02:18:30;100332.50;;;9.90;86.38
70011;BME280;59543;37.950;-122.338;2023-01-15T02:21:00;100335.88;;;9.92;86.00
70011;BME280;59543;37.950;-122.338;2023-01-15T02:23:52;100324.00;;;9.94;85.91
70011;BME280;59543;37.950;-122.338;2023-01-15T02:28:56;100321.22;;;9.86;87.50
70011;BME280;59543;37.950;-122.338;2023-01-15T02:31:36;100336.41;;;9.95;86.70
70011;BME280;59543;37.950;-122.338;2023-01-15T02:34:16;100335.97;;;10.00;86.79
70011;BME280;59543;37.950;-122.338;2023-01-15T02:36:49;100337.81;;;9.99;86.82
70011;BME280;59543;37.950;-122.338;2023-01-15T02:39:17;100345.56;;;10.02;86.69
70011;BME280;59543;37.950;-122.338;2023-01-15T02:41:48;100344.31;;;9.97;86.29
70011;BME280;59543;37.950;-122.338;2023-01-15T02:44:19;100347.94;;;10.05;86.53
70011;BME280;59543;37.950;-122.338;2023-01-15T02:46:47;100356.13;;;10.04;86.34
70011;BME280;59543;37.950;-122.338;2023-01-15T02:49:16;100356.66;;;10.07;86.54
70011;BME280;59543;37.950;-122.338;2023-01-15T02:51:50;100356.13;;;10.04;86.28
70011;BME280;59543;37.950;-122.338;2023-01-15T02:54:20;100353.63;;;10.02;86.85
70011;BME280;59543;37.950;-122.338;2023-01-15T02:56:49;100349.78;;;10.05;87.24
70011;BME280;59543;37.950;-122.338;2023-01-15T02:59:26;100343.94;;;10.10;87.19
70011;BME280;59543;37.950;-122.338;2023-01-15T03:02:00;100351.16;;;10.09;86.36
70011;BME280;59543;37.950;-122.338;2023-01-15T03:07:18;100354.84;;;10.08;86.37
70011;BME280;59543;37.950;-122.338;2023-01-15T03:09:47;100353.84;;;10.09;86.65
70011;BME280;59543;37.950;-122.338;2023-01-15T03:15:21;100351.84;;;10.11;86.71
70011;BME280;59543;37.950;-122.338;2023-01-15T03:18:14;100352.16;;;10.08;86.49
70011;BME280;59543;37.950;-122.338;2023-01-15T03:20:50;100345.91;;;10.07;85.94
70011;BME280;59543;37.950;-122.338;2023-01-15T03:23:18;100344.75;;;10.10;85.78
70011;BME280;59543;37.950;-122.338;2023-01-15T03:25:49;100349.59;;;10.06;86.29
70011;BME280;59543;37.950;-122.338;2023-01-15T03:28:23;100357.38;;;10.10;85.71
70011;BME280;59543;37.950;-122.338;2023-01-15T03:30:50;100354.47;;;10.03;86.35
70011;BME280;59543;37.950;-122.338;2023-01-15T03:33:17;100366.34;;;10.00;86.58
70011;BME280;59543;37.950;-122.338;2023-01-15T03:35:50;100376.78;;;10.03;86.40
70011;BME280;59543;37.950;-122.338;2023-01-15T03:38:31;100372.25;;;10.04;85.93
70011;BME280;59543;37.950;-122.338;2023-01-15T03:54:23;100375.16;;;10.11;86.71
70011;BME280;59543;37.950;-122.338;2023-01-15T03:57:10;100379.03;;;10.08;87.14
70011;BME280;59543;37.950;-122.338;2023-01-15T03:59:43;100371.28;;;10.05;87.35
70011;BME280;59543;37.950;-122.338;2023-01-15T04:02:13;100373.03;;;10.14;87.04
70011;BME280;59543;37.950;-122.338;2023-01-15T04:04:40;100363.75;;;10.08;88.01
70011;BME280;59543;37.950;-122.338;2023-01-15T04:07:07;100370.41;;;10.04;87.96
70011;BME280;59543;37.950;-122.338;2023-01-15T04:09:37;100376.78;;;10.03;88.94
70011;BME280;59543;37.950;-122.338;2023-01-15T04:12:04;100371.41;;;10.03;89.25
70011;BME280;59543;37.950;-122.338;2023-01-15T04:14:30;100369.13;;;10.08;89.10
70011;BME280;59543;37.950;-122.338;2023-01-15T04:16:57;100368.50;;;10.15;88.86
70011;BME280;59543;37.950;-122.338;2023-01-15T04:19:23;100370.50;;;10.13;89.48
70011;BME280;59543;37.950;-122.338;2023-01-15T04:21:50;100365.84;;;10.41;87.80
70011;BME280;59543;37.950;-122.338;2023-01-15T04:24:16;100372.88;;;10.34;88.43
70011;BME280;59543;37.950;-122.338;2023-01-15T04:26:42;100367.41;;;10.25;89.21
70011;BME280;59543;37.950;-122.338;2023-01-15T04:29:09;100366.44;;;10.26;89.65
70011;BME280;59543;37.950;-122.338;2023-01-15T04:31:35;100368.25;;;10.26;89.89
70011;BME280;59543;37.950;-122.338;2023-01-15T04:34:02;100366.28;;;10.28;89.96
70011;BME280;59543;37.950;-122.338;2023-01-15T04:36:28;100369.03;;;10.18;90.44
70011;BME280;59543;37.950;-122.338;2023-01-15T04:38:55;100378.72;;;10.11;91.57
70011;BME280;59543;37.950;-122.338;2023-01-15T04:41:23;100396.09;;;9.99;89.57
70011;BME280;59543;37.950;-122.338;2023-01-15T04:44:08;100391.63;;;9.72;85.59
70011;BME280;59543;37.950;-122.338;2023-01-15T04:46:38;100401.53;;;9.16;86.86
70011;BME280;59543;37.950;-122.338;2023-01-15T04:49:07;100385.72;;;9.13;88.14
70011;BME280;59543;37.950;-122.338;2023-01-15T04:51:33;100394.66;;;9.04;89.57
70011;BME280;59543;37.950;-122.338;2023-01-15T04:54:03;100411.78;;;9.03;89.21
70011;BME280;59543;37.950;-122.338;2023-01-15T04:56:30;100429.41;;;8.96;90.94
70011;BME280;59543;37.950;-122.338;2023-01-15T04:59:01;100419.31;;;8.80;92.44
70011;BME280;59543;37.950;-122.338;2023-01-15T05:01:28;100414.69;;;8.62;94.92
70011;BME280;59543;37.950;-122.338;2023-01-15T05:03:54;100418.06;;;8.74;94.95
70011;BME280;59543;37.950;-122.338;2023-01-15T05:06:20;100424.28;;;8.65;93.81
70011;BME280;59543;37.950;-122.338;2023-01-15T05:08:46;100436.78;;;8.84;93.33
70011;BME280;59543;37.950;-122.338;2023-01-15T05:11:13;100425.88;;;8.58;95.29
70011;BME280;59543;37.950;-122.338;2023-01-15T05:13:39;100416.13;;;8.66;94.77
70011;BME280;59543;37.950;-122.338;2023-01-15T05:16:19;100424.16;;;8.57;94.83
70011;BME280;59543;37.950;-122.338;2023-01-15T05:18:46;100427.81;;;8.65;95.03
70011;BME280;59543;37.950;-122.338;2023-01-15T05:21:24;100422.47;;;8.56;95.90
70011;BME280;59543;37.950;-122.338;2023-01-15T05:23:52;100421.00;;;8.81;94.86
70011;BME280;59543;37.950;-122.338;2023-01-15T05:26:19;100431.47;;;8.74;95.74
70011;BME280;59543;37.950;-122.338;2023-01-15T05:28:46;100438.09;;;8.80;95.11
70011;BME280;59543;37.950;-122.338;2023-01-15T05:31:17;100438.81;;;8.72;95.51
70011;BME280;59543;37.950;-122.338;2023-01-15T05:33:45;100427.75;;;8.95;94.55
70011;BME280;59543;37.950;-122.338;2023-01-15T05:36:14;100424.91;;;8.96;93.34
70011;BME280;59543;37.950;-122.338;2023-01-15T05:38:41;100424.13;;;8.76;93.89
70011;BME280;59543;37.950;-122.338;2023-01-15T05:41:10;100420.28;;;8.88;92.73
70011;BME280;59543;37.950;-122.338;2023-01-15T05:43:55;100425.47;;;8.90;93.32
70011;BME280;59543;37.950;-122.338;2023-01-15T05:46:24;100423.25;;;8.85;93.28
70011;BME280;59543;37.950;-122.338;2023-01-15T05:48:50;100422.97;;;8.88;92.82
70011;BME280;59543;37.950;-122.338;2023-01-15T05:51:17;100421.97;;;8.89;92.88
70011;BME280;59543;37.950;-122.338;2023-01-15T05:53:43;100413.41;;;8.76;93.51
70011;BME280;59543;37.950;-122.338;2023-01-15T05:56:09;100411.59;;;8.67;95.11
70011;BME280;59543;37.950;-122.338;2023-01-15T05:58:36;100405.25;;;8.58;94.71
70011;BME280;59543;37.950;-122.338;2023-01-15T06:01:07;100410.34;;;8.52;95.03
70011;BME280;59543;37.950;-122.338;2023-01-15T06:03:33;100411.63;;;8.47;95.03
70011;BME280;59543;37.950;-122.338;2023-01-15T06:06:00;100417.97;;;8.46;94.93
70011;BME280;59543;37.950;-122.338;2023-01-15T06:08:26;100420.38;;;8.50;94.73
70011;BME280;59543;37.950;-122.338;2023-01-15T06:10:52;100421.38;;;8.49;94.52
70011;BME280;59543;37.950;-122.338;2023-01-15T06:13:19;100427.69;;;8.47;94.24
70011;BME280;59543;37.950;-122.338;2023-01-15T06:15:45;100433.22;;;8.46;94.57
70011;BME280;59543;37.950;-122.338;2023-01-15T06:18:11;100436.31;;;8.41;94.34
70011;BME280;59543;37.950;-122.338;2023-01-15T06:20:39;100433.16;;;8.36;94.11
70011;BME280;59543;37.950;-122.338;2023-01-15T06:23:06;100437.41;;;8.29;94.31
70011;BME280;59543;37.950;-122.338;2023-01-15T06:25:33;100440.25;;;8.28;94.12
70011;BME280;59543;37.950;-122.338;2023-01-15T06:28:03;100434.31;;;8.24;94.08
70011;BME280;59543;37.950;-122.338;2023-01-15T06:30:30;100426.56;;;8.21;93.72
70011;BME280;59543;37.950;-122.338;2023-01-15T06:32:56;100438.00;;;8.23;93.92
70011;BME280;59543;37.950;-122.338;2023-01-15T06:35:22;100439.28;;;8.19;93.54
70011;BME280;59543;37.950;-122.338;2023-01-15T06:37:49;100441.50;;;8.14;93.73
70011;BME280;59543;37.950;-122.338;2023-01-15T06:40:16;100438.84;;;8.14;93.99
70011;BME280;59543;37.950;-122.338;2023-01-15T06:42:42;100437.00;;;8.05;94.70
70011;BME280;59543;37.950;-122.338;2023-01-15T06:45:31;100436.03;;;8.15;94.93
70011;BME280;59543;37.950;-122.338;2023-01-15T06:48:19;100433.19;;;7.97;95.43
70011;BME280;59543;37.950;-122.338;2023-01-15T06:50:46;100440.63;;;7.84;97.02
70011;BME280;59543;37.950;-122.338;2023-01-15T06:53:12;100444.75;;;7.88;96.70
70011;BME280;59543;37.950;-122.338;2023-01-15T06:55:38;100429.09;;;7.93;96.47
70011;BME280;59543;37.950;-122.338;2023-01-15T06:58:05;100432.06;;;8.10;96.64
70011;BME280;59543;37.950;-122.338;2023-01-15T07:00:31;100434.75;;;8.19;95.17
70011;BME280;59543;37.950;-122.338;2023-01-15T07:03:03;100429.25;;;7.92;96.36
70011;BME280;59543;37.950;-122.338;2023-01-15T07:05:29;100426.97;;;7.87;97.42
70011;BME280;59543;37.950;-122.338;2023-01-15T07:07:57;100431.38;;;7.98;97.52
70011;BME280;59543;37.950;-122.338;2023-01-15T07:10:23;100428.25;;;7.83;98.02
70011;BME280;59543;37.950;-122.338;2023-01-15T07:12:49;100438.41;;;7.89;98.26
70011;BME280;59543;37.950;-122.338;2023-01-15T07:15:16;100437.00;;;7.95;98.24
70011;BME280;59543;37.950;-122.338;2023-01-15T07:17:42;100440.09;;;8.00;97.77
70011;BME280;59543;37.950;-122.338;2023-01-15T07:20:09;100442.06;;;8.08;97.51
70011;BME280;59543;37.950;-122.338;2023-01-15T07:22:35;100454.22;;;8.31;96.48
70011;BME280;59543;37.950;-122.338;2023-01-15T07:25:01;100455.50;;;8.37;95.12
70011;BME280;59543;37.950;-122.338;2023-01-15T07:27:28;100454.19;;;8.60;94.32
70011;BME280;59543;37.950;-122.338;2023-01-15T07:29:54;100449.88;;;8.40;95.53
70011;BME280;59543;37.950;-122.338;2023-01-15T07:32:20;100440.94;;;8.30;96.11
70011;BME280;59543;37.950;-122.338;2023-01-15T07:34:46;100438.28;;;8.10;97.12
70011;BME280;59543;37.950;-122.338;2023-01-15T07:37:12;100430.97;;;8.12;98.04
70011;BME280;59543;37.950;-122.338;2023-01-15T07:39:39;100432.91;;;8.20;97.71
70011;BME280;59543;37.950;-122.338;2023-01-15T07:42:05;100434.03;;;8.27;97.12
70011;BME280;59543;37.950;-122.338;2023-01-15T07:44:50;100436.31;;;8.22;97.39
70011;BME280;59543;37.950;-122.338;2023-01-15T07:47:34;100436.03;;;8.25;97.77
70011;BME280;59543;37.950;-122.338;2023-01-15T07:50:21;100432.63;;;8.23;98.27
70011;BME280;59543;37.950;-122.338;2023-01-15T07:52:48;100439.97;;;8.31;98.33
70011;BME280;59543;37.950;-122.338;2023-01-15T07:55:14;100443.91;;;8.36;97.45
70011;BME280;59543;37.950;-122.338;2023-01-15T07:57:41;100446.47;;;8.28;97.07
70011;BME280;59543;37.950;-122.338;2023-01-15T08:00:12;100461.69;;;8.28;97.23
70011;BME280;59543;37.950;-122.338;2023-01-15T08:02:39;100469.84;;;8.26;96.95
70011;BME280;59543;37.950;-122.338;2023-01-15T08:05:06;100475.78;;;8.30;96.93
70011;BME280;59543;37.950;-122.338;2023-01-15T08:07:39;100472.25;;;8.19;96.83
70011;BME280;59543;37.950;-122.338;2023-01-15T08:10:07;100471.25;;;8.11;97.11
70011;BME280;59543;37.950;-122.338;2023-01-15T08:12:34;100469.44;;;8.11;97.17
70011;BME280;59543;37.950;-122.338;2023-01-15T08:15:18;100466.63;;;8.13;98.04
70011;BME280;59543;37.950;-122.338;2023-01-15T08:17:46;100457.16;;;8.09;98.15
70011;BME280;59543;37.950;-122.338;2023-01-15T08:20:18;100464.50;;;8.07;99.27
70011;BME280;59543;37.950;-122.338;2023-01-15T08:22:46;100457.88;;;8.11;99.03
70011;BME280;59543;37.950;-122.338;2023-01-15T08:25:15;100466.88;;;8.00;99.17
70011;BME280;59543;37.950;-122.338;2023-01-15T08:27:41;100471.53;;;8.08;99.17
70011;BME280;59543;37.950;-122.338;2023-01-15T08:30:11;100472.94;;;8.12;98.67
70011;BME280;59543;37.950;-122.338;2023-01-15T08:32:37;100479.56;;;8.27;98.54
70011;BME280;59543;37.950;-122.338;2023-01-15T08:35:04;100483.25;;;8.26;98.21
70011;BME280;59543;37.950;-122.338;2023-01-15T08:37:31;100479.03;;;8.23;98.29
70011;BME280;59543;37.950;-122.338;2023-01-15T08:39:57;100482.41;;;8.16;98.94
70011;BME280;59543;37.950;-122.338;2023-01-15T08:42:23;100480.75;;;8.54;97.66
70011;BME280;59543;37.950;-122.338;2023-01-15T08:44:49;100473.56;;;8.44;97.52
70011;BME280;59543;37.950;-122.338;2023-01-15T08:47:16;100482.03;;;8.40;97.32
70011;BME280;59543;37.950;-122.338;2023-01-15T08:49:43;100481.28;;;8.38;98.03
70011;BME280;59543;37.950;-122.338;2023-01-15T08:52:11;100477.50;;;8.40;97.96
70011;BME280;59543;37.950;-122.338;2023-01-15T08:54:37;100468.16;;;8.35;98.20
70011;BME280;59543;37.950;-122.338;2023-01-15T08:57:03;100463.09;;;8.22;99.21
70011;BME280;59543;37.950;-122.338;2023-01-15T08:59:30;100470.44;;;8.20;100.00
70011;BME280;59543;37.950;-122.338;2023-01-15T09:01:56;100485.94;;;8.16;100.00
70011;BME280;59543;37.950;-122.338;2023-01-15T09:04:22;100492.13;;;8.07;100.00
70011;BME280;59543;37.950;-122.338;2023-01-15T09:06:48;100496.78;;;8.05;100.00
70011;BME280;59543;37.950;-122.338;2023-01-15T09:09:15;100495.78;;;8.06;100.00
70011;BME280;59543;37.950;-122.338;2023-01-15T09:11:44;100504.25;;;8.11;100.00
70011;BME280;59543;37.950;-122.338;2023-01-15T09:14:12;100503.13;;;8.14;99.86
70011;BME280;59543;37.950;-122.338;2023-01-15T09:16:39;100501.00;;;8.17;99.60
70011;BME280;59543;37.950;-122.338;2023-01-15T09:19:06;100505.25;;;8.20;99.24
70011;BME280;59543;37.950;-122.338;2023-01-15T09:21:33;100500.34;;;8.15;99.53
70011;BME280;59543;37.950;-122.338;2023-01-15T09:23:59;100501.28;;;8.14;99.91
70011;BME280;59543;37.950;-122.338;2023-01-15T09:26:37;100483.97;;;8.18;99.92
70011;BME280;59543;37.950;-122.338;2023-01-15T09:29:05;100469.72;;;8.18;100.00
70011;BME280;59543;37.950;-122.338;2023-01-15T09:31:32;100465.78;;;8.12;100.00
70011;BME280;59543;37.950;-122.338;2023-01-15T09:33:58;100474.94;;;8.10;100.00
70011;BME280;59543;37.950;-122.338;2023-01-15T09:36:30;100471.53;;;8.08;100.00
70011;BME280;59543;37.950;-122.338;2023-01-15T09:38:58;100474.94;;;8.10;100.00
70011;BME280;59543;37.950;-122.338;2023-01-15T09:41:26;100471.25;;;8.20;100.00
70011;BME280;59543;37.950;-122.338;2023-01-15T09:44:36;100463.66;;;8.25;100.00
70011;BME280;59543;37.950;-122.338;2023-01-15T09:49:40;100474.81;;;8.31;99.79
70011;BME280;59543;37.950;-122.338;2023-01-15T09:54:51;100492.84;;;8.29;99.65
70011;BME280;59543;37.950;-122.338;2023-01-15T09:57:22;100500.06;;;8.47;100.00
70011;BME280;59543;37.950;-122.338;2023-01-15T09:59:51;100511.22;;;8.53;100.00
70011;BME280;59543;37.950;-122.338;2023-01-15T10:02:39;100520.28;;;8.52;100.00
70011;BME280;59543;37.950;-122.338;2023-01-15T10:07:57;100533.94;;;8.58;100.00
70011;BME280;59543;37.950;-122.338;2023-01-15T10:10:29;100538.19;;;8.61;100.00
70011;BME280;59543;37.950;-122.338;2023-01-15T10:13:07;100546.63;;;8.56;100.00
70011;BME280;59543;37.950;-122.338;2023-01-15T10:15:41;100552.00;;;8.56;100.00
70011;BME280;59543;37.950;-122.338;2023-01-15T10:18:27;100549.16;;;8.48;100.00
70011;BME280;59543;37.950;-122.338;2023-01-15T10:21:07;100552.28;;;8.53;100.00
70011;BME280;59543;37.950;-122.338;2023-01-15T10:26:38;100552.28;;;8.53;100.00
70011;BME280;59543;37.950;-122.338;2023-01-15T10:35:23;100550.59;;;8.62;100.00
70011;BME280;59543;37.950;-122.338;2023-01-15T10:40:51;100548.06;;;8.70;100.00
70011;BME280;59543;37.950;-122.338;2023-01-15T10:46:09;100552.00;;;8.85;100.00
70011;BME280;59543;37.950;-122.338;2023-01-15T10:48:44;100546.06;;;8.91;100.00
70011;BME280;59543;37.950;-122.338;2023-01-15T10:54:34;100552.50;;;9.08;100.00
70011;BME280;59543;37.950;-122.338;2023-01-15T10:59:51;100562.13;;;9.11;99.82
70011;BME280;59543;37.950;-122.338;2023-01-15T11:04:51;100548.59;;;9.03;99.92
70011;BME280;59543;37.950;-122.338;2023-01-15T11:07:22;100544.91;;;9.04;99.94
70011;BME280;59543;37.950;-122.338;2023-01-15T11:09:51;100548.31;;;8.96;99.79
70011;BME280;59543;37.950;-122.338;2023-01-15T11:12:24;100548.88;;;9.00;99.63
70011;BME280;59543;37.950;-122.338;2023-01-15T11:14:52;100550.31;;;8.94;99.54
70011;BME280;59543;37.950;-122.338;2023-01-15T11:17:41;100549.00;;;9.08;99.76
70011;BME280;59543;37.950;-122.338;2023-01-15T11:23:07;100548.03;;;8.89;99.62
70011;BME280;59543;37.950;-122.338;2023-01-15T11:25:34;100549.88;;;8.89;99.61
70011;BME280;59543;37.950;-122.338;2023-01-15T11:28:05;100536.03;;;8.84;99.55
70011;BME280;59543;37.950;-122.338;2023-01-15T11:30:34;100541.84;;;8.79;99.60
70011;BME280;59543;37.950;-122.338;2023-01-15T11:33:19;100548.47;;;8.75;99.09
70011;BME280;59543;37.950;-122.338;2023-01-15T11:35:54;100549.47;;;8.74;99.51
70011;BME280;59543;37.950;-122.338;2023-01-15T11:38:26;100542.13;;;8.76;99.01
70011;BME280;59543;37.950;-122.338;2023-01-15T11:41:01;100543.53;;;8.70;98.93
70011;BME280;59543;37.950;-122.338;2023-01-15T11:43:30;100534.22;;;8.75;98.94
70011;BME280;59543;37.950;-122.338;2023-01-15T11:46:25;100538.19;;;8.70;98.70
70011;BME280;59543;37.950;-122.338;2023-01-15T11:49:20;100534.09;;;8.76;98.70
70011;BME280;59543;37.950;-122.338;2023-01-15T11:52:24;100529.28;;;8.70;98.71
70011;BME280;59543;37.950;-122.338;2023-01-15T11:54:53;100522.22;;;8.69;98.56
70011;BME280;59543;37.950;-122.338;2023-01-15T11:57:35;100522.50;;;8.66;98.33
70011;BME280;59543;37.950;-122.338;2023-01-15T12:00:02;100516.31;;;8.56;98.12
70011;BME280;59543;37.950;-122.338;2023-01-15T12:02:33;100518.44;;;8.52;97.93
70011;BME280;59543;37.950;-122.338;2023-01-15T12:05:22;100509.13;;;8.46;98.24
70011;BME280;59543;37.950;-122.338;2023-01-15T12:07:52;100498.25;;;8.38;99.00
70011;BME280;59543;37.950;-122.338;2023-01-15T12:10:24;100493.84;;;8.37;98.97
70011;BME280;59543;37.950;-122.338;2023-01-15T12:13:54;100504.00;;;8.34;99.60
70011;BME280;59543;37.950;-122.338;2023-01-15T12:21:55;100506.97;;;8.31;99.20
70011;BME280;59543;37.950;-122.338;2023-01-15T12:30:38;100508.50;;;8.23;100.00
70011;BME280;59543;37.950;-122.338;2023-01-15T12:36:23;100496.94;;;8.23;100.00
70011;BME280;59543;37.950;-122.338;2023-01-15T12:39:00;100501.88;;;8.28;100.00
70011;BME280;59543;37.950;-122.338;2023-01-15T12:41:33;100510.50;;;8.31;100.00
70011;BME280;59543;37.950;-122.338;2023-01-15T12:44:36;100497.09;;;8.31;100.00
70011;BME280;59543;37.950;-122.338;2023-01-15T12:47:48;100507.94;;;8.30;100.00
70011;BME280;59543;37.950;-122.338;2023-01-15T12:50:38;100507.53;;;8.34;100.00
70011;BME280;59543;37.950;-122.338;2023-01-15T12:56:23;100507.00;;;8.40;100.00
70011;BME280;59543;37.950;-122.338;2023-01-15T12:59:17;100500.22;;;8.46;100.00
70011;BME280;59543;37.950;-122.338;2023-01-15T13:05:14;100501.22;;;8.64;100.00
70011;BME280;59543;37.950;-122.338;2023-01-15T13:10:17;100479.59;;;8.66;100.00
70011;BME280;59543;37.950;-122.338;2023-01-15T13:12:44;100488.22;;;8.69;100.00
70011;BME280;59543;37.950;-122.338;2023-01-15T13:15:16;100496.13;;;8.71;100.00
70011;BME280;59543;37.950;-122.338;2023-01-15T13:18:03;100483.53;;;8.91;100.00
70011;BME280;59543;37.950;-122.338;2023-01-15T13:20:47;100484.78;;;8.87;100.00
70011;BME280;59543;37.950;-122.338;2023-01-15T13:26:25;100494.56;;;8.88;100.00
70011;BME280;59543;37.950;-122.338;2023-01-15T13:29:08;100490.25;;;9.05;100.00
70011;BME280;59543;37.950;-122.338;2023-01-15T13:32:00;100489.84;;;9.09;100.00
70011;BME280;59543;37.950;-122.338;2023-01-15T13:37:30;100485.38;;;9.28;100.00
70011;BME280;59543;37.950;-122.338;2023-01-15T13:40:12;100481.31;;;9.24;100.00
70011;BME280;59543;37.950;-122.338;2023-01-15T13:42:47;100478.34;;;9.27;100.00
70011;BME280;59543;37.950;-122.338;2023-01-15T13:50:36;100463.63;;;9.31;100.00
70011;BME280;59543;37.950;-122.338;2023-01-15T13:53:33;100465.56;;;9.38;100.00
70011;BME280;59543;37.950;-122.338;2023-01-15T13:56:04;100474.31;;;9.41;99.45
70011;BME280;59543;37.950;-122.338;2023-01-15T13:58:34;100473.41;;;9.22;100.00
70011;BME280;59543;37.950;-122.338;2023-01-15T14:01:03;100477.63;;;9.25;100.00
70011;BME280;59543;37.950;-122.338;2023-01-15T14:03:37;100476.38;;;9.19;100.00
70011;BME280;59543;37.950;-122.338;2023-01-15T14:06:06;100490.16;;;9.34;100.00
70011;BME280;59543;37.950;-122.338;2023-01-15T14:08:42;100495.41;;;9.26;100.00
70011;BME280;59543;37.950;-122.338;2023-01-15T14:11:35;100492.09;;;9.51;99.37
70011;BME280;59543;37.950;-122.338;2023-01-15T14:23:41;100527.63;;;9.26;98.02
70011;BME280;59543;37.950;-122.338;2023-01-15T14:31:35;100534.28;;;9.22;97.55
70011;BME280;59543;37.950;-122.338;2023-01-15T14:36:56;100538.91;;;9.29;97.95